Time;durP1;ratioP1;P1;durP2;ratioP2;P2;SDS_P1;SDS_P2;PMS_P1;PMS_P2;Temp;Humidity;BMP_temperature;BMP_pressure;BME280_temperature;BME280_humidity;BME280_pressure;Samples;Min_cycle;Max_cycle;Signal;HPM_P1;HPM_P2
2023/09/17 00:00:24;;;;;;;6.17;4.63;;;;;;;21.65;100.00;101957.47;2080046;28;20177;-65
2023/09/17 00:01:24;;;;;;;6.40;3.93;;;;;;;21.64;100.00;101958.72;2080349;28;20607;-65
2023/09/17 00:02:25;;;;;;;5.63;4.20;;;;;;;21.61;100.00;101956.88;2080741;28;20207;-64
2023/09/17 00:03:25;;;;;;;4.93;3.87;;;;;;;21.38;100.00;101922.94;2080188;28;20192;-64
2023/09/17 00:04:26;;;;;;;5.60;4.40;;;;;;;21.16;100.00;101886.56;2080287;28;20219;-65
2023/09/17 00:05:26;;;;;;;6.23;4.43;;;;;;;21.68;100.00;101967.03;2080424;28;20196;-64
2023/09/17 00:06:27;;;;;;;5.57;4.30;;;;;;;21.66;100.00;101959.06;2080088;28;20192;-64
2023/09/17 00:07:27;;;;;;;5.53;4.20;;;;;;;21.70;100.00;101965.31;2080320;28;20773;-64
2023/09/17 00:08:28;;;;;;;5.70;4.20;;;;;;;21.67;100.00;101962.63;2080244;28;20565;-64
2023/09/17 00:09:28;;;;;;;5.63;4.33;;;;;;;21.43;100.00;101934.38;2080038;28;20265;-64
2023/09/17 00:10:28;;;;;;;5.87;4.20;;;;;;;21.62;100.00;101954.81;2080219;28;20204;-64
2023/09/17 00:11:29;;;;;;;5.47;3.83;;;;;;;21.59;100.00;101959.38;2080317;28;20193;-65
2023/09/17 00:12:29;;;;;;;5.80;4.30;;;;;;;21.59;100.00;101958.63;2080140;28;20204;-65
2023/09/17 00:13:30;;;;;;;5.13;4.13;;;;;;;21.59;100.00;101956.56;2080352;28;20200;-64
2023/09/17 00:14:31;;;;;;;5.10;3.53;;;;;;;21.62;100.00;101961.25;2079953;28;20271;-65
2023/09/17 00:15:31;;;;;;;6.07;4.40;;;;;;;21.55;100.00;101941.84;2080100;28;20203;-65
2023/09/17 00:16:32;;;;;;;6.33;4.50;;;;;;;21.63;100.00;101953.56;2080411;28;20567;-64
2023/09/17 00:17:32;;;;;;;5.70;4.20;;;;;;;21.64;100.00;101943.88;2079402;28;20187;-65
2023/09/17 00:18:33;;;;;;;5.47;4.07;;;;;;;21.65;100.00;101951.81;2080496;28;20196;-65
2023/09/17 00:19:33;;;;;;;6.47;4.30;;;;;;;21.59;100.00;101950.91;2079886;28;20195;-65
2023/09/17 00:20:34;;;;;;;6.60;4.57;;;;;;;21.55;100.00;101952.34;2079828;28;20630;-65
2023/09/17 00:21:34;;;;;;;8.10;4.33;;;;;;;21.53;100.00;101949.22;2080071;28;20579;-65
2023/09/17 00:22:34;;;;;;;5.07;4.37;;;;;;;21.55;100.00;101955.19;2080344;28;20185;-64
2023/09/17 00:23:35;;;;;;;5.03;3.70;;;;;;;21.57;100.00;101956.25;2080480;28;20216;-65
2023/09/17 00:24:35;;;;;;;4.43;3.63;;;;;;;21.62;100.00;101954.81;2080339;28;20188;-64
2023/09/17 00:25:37;;;;;;;5.90;4.30;;;;;;;21.53;100.00;101947.19;2080223;28;20655;-65
2023/09/17 00:26:37;;;;;;;4.23;3.77;;;;;;;21.59;100.00;101956.56;2080616;28;20689;-65
2023/09/17 00:27:39;;;;;;;5.47;3.97;;;;;;;21.56;100.00;101949.06;2080205;28;20647;-65
2023/09/17 00:28:39;;;;;;;4.93;4.10;;;;;;;21.54;100.00;101956.44;2080095;28;20567;-64
2023/09/17 00:29:40;;;;;;;5.90;4.00;;;;;;;21.49;100.00;101948.63;2080084;28;20246;-65
2023/09/17 00:30:40;;;;;;;6.60;4.07;;;;;;;21.49;100.00;101952.22;2079309;28;20639;-65
2023/09/17 00:31:40;;;;;;;4.60;3.97;;;;;;;21.48;100.00;101947.84;2078970;28;20674;-65
2023/09/17 00:32:41;;;;;;;5.17;3.93;;;;;;;21.41;100.00;101938.94;2080202;28;20205;-64
2023/09/17 00:33:41;;;;;;;5.27;3.87;;;;;;;21.45;100.00;101942.38;2079894;28;20211;-65
2023/09/17 00:34:42;;;;;;;5.03;4.07;;;;;;;21.48;100.00;101944.22;2080668;28;20209;-65
2023/09/17 00:35:43;;;;;;;5.43;4.07;;;;;;;21.44;100.00;101944.41;2080542;28;20205;-65
2023/09/17 00:36:43;;;;;;;4.97;3.93;;;;;;;21.42;100.00;101938.47;2080248;28;20191;-65
2023/09/17 00:37:44;;;;;;;6.73;3.70;;;;;;;21.40;100.00;101940.19;2080162;28;20677;-65
2023/09/17 00:38:44;;;;;;;5.70;4.20;;;;;;;21.42;100.00;101944.09;2080199;28;20193;-65
2023/09/17 00:39:45;;;;;;;6.00;3.90;;;;;;;21.44;100.00;101943.63;2080350;28;20197;-64
2023/09/17 00:40:45;;;;;;;5.90;4.00;;;;;;;21.46;100.00;101946.75;2081849;28;20177;-64
2023/09/17 00:41:45;;;;;;;6.57;4.87;;;;;;;21.47;100.00;101946.28;2081193;28;20212;-65
2023/09/17 00:42:46;;;;;;;5.93;4.10;;;;;;;21.47;100.00;101953.94;2081038;28;20209;-64
2023/09/17 00:43:46;;;;;;;5.93;4.47;;;;;;;21.44;100.00;101949.28;2074119;28;20190;-64
2023/09/17 00:44:47;;;;;;;6.47;4.13;;;;;;;21.42;100.00;101944.09;2088492;28;20203;-65
2023/09/17 00:45:47;;;;;;;5.80;3.90;;;;;;;21.39;100.00;101952.72;2088677;28;20266;-64
2023/09/17 00:46:48;;;;;;;5.33;3.97;;;;;;;21.39;100.00;101947.84;2081928;28;20196;-65
2023/09/17 00:47:48;;;;;;;6.00;4.50;;;;;;;21.40;100.00;101952.22;2081256;28;20185;-65
2023/09/17 00:48:49;;;;;;;8.10;4.63;;;;;;;21.39;100.00;101947.84;2081416;28;20210;-65
2023/09/17 00:49:49;;;;;;;5.70;4.63;;;;;;;20.77;100.00;101853.75;2081071;28;20331;-65
2023/09/17 00:50:50;;;;;;;5.03;3.97;;;;;;;21.37;100.00;101946.78;2081507;28;20303;-65
2023/09/17 00:51:50;;;;;;;7.63;4.63;;;;;;;21.39;100.00;101947.09;2082078;28;20318;-65
2023/09/17 00:52:51;;;;;;;5.83;4.60;;;;;;;21.42;100.00;101944.09;2082016;28;20210;-64
2023/09/17 00:53:58;;;;;;;7.17;4.27;;;;;;;21.43;100.00;101953.31;2081118;28;20247;-65
2023/09/17 00:54:59;;;;;;;5.37;4.30;;;;;;;21.01;100.00;101884.88;2081249;28;20246;-64
2023/09/17 00:55:59;;;;;;;7.30;4.30;;;;;;;21.40;100.00;101943.00;2081735;28;20197;-64
2023/09/17 00:57:00;;;;;;;5.40;4.30;;;;;;;21.45;100.00;101945.19;2084326;28;20663;-64
2023/09/17 00:58:01;;;;;;;6.80;4.37;;;;;;;21.46;100.00;101947.53;2081479;28;20276;-64
2023/09/17 00:59:03;;;;;;;5.17;4.33;;;;;;;21.50;100.00;101947.38;2081189;28;20177;-64
2023/09/17 01:00:05;;;;;;;5.10;3.93;;;;;;;21.46;100.00;101939.06;2081097;28;20271;-64
2023/09/17 01:01:07;;;;;;;5.20;3.80;;;;;;;21.44;100.00;101943.63;2082242;28;20428;-64
2023/09/17 01:02:08;;;;;;;5.63;4.17;;;;;;;21.52;100.00;101948.44;2081634;28;20218;-64
2023/09/17 01:03:09;;;;;;;5.57;4.27;;;;;;;21.54;100.00;101948.75;2081836;28;20455;-64
2023/09/17 01:04:12;;;;;;;6.20;4.07;;;;;;;21.55;100.00;101949.53;2080889;28;20220;-64
2023/09/17 01:05:13;;;;;;;5.57;4.00;;;;;;;21.57;100.00;101941.38;2081016;28;20243;-64
2023/09/17 01:06:13;;;;;;;7.03;4.13;;;;;;;21.60;100.00;101941.19;2081333;28;20516;-64
2023/09/17 01:07:14;;;;;;;4.80;3.77;;;;;;;21.63;100.00;101942.28;2081314;28;20519;-65
2023/09/17 01:08:15;;;;;;;8.33;4.37;;;;;;;21.65;100.00;101945.41;2081080;28;20177;-64
2023/09/17 01:09:18;;;;;;;7.47;4.47;;;;;;;21.66;100.00;101952.63;2081014;28;20482;-64
2023/09/17 01:10:19;;;;;;;6.20;4.63;;;;;;;21.64;100.00;101955.16;2081390;28;20271;-64
2023/09/17 01:11:20;;;;;;;5.10;4.20;;;;;;;21.61;100.00;101951.25;2081858;28;20204;-65
2023/09/17 01:12:20;;;;;;;5.17;4.23;;;;;;;21.60;100.00;101949.66;2080365;28;20200;-65
2023/09/17 01:13:23;;;;;;;6.43;4.53;;;;;;;21.66;100.00;101958.25;2080516;28;20572;-64
2023/09/17 01:14:23;;;;;;;6.67;4.17;;;;;;;21.67;100.00;101948.53;2081633;28;20701;-64
2023/09/17 01:15:27;;;;;;;5.90;4.17;;;;;;;21.71;100.00;101957.66;2081623;28;20554;-65
2023/09/17 01:16:28;;;;;;;5.97;4.20;;;;;;;21.76;100.00;101957.78;2081680;28;20189;-65
2023/09/17 01:17:30;;;;;;;4.90;4.20;;;;;;;21.71;100.00;101952.78;2081214;28;20173;-64
2023/09/17 01:18:32;;;;;;;6.37;4.23;;;;;;;21.72;100.00;101953.56;2081324;28;20165;-64
2023/09/17 01:19:33;;;;;;;5.33;4.07;;;;;;;21.66;100.00;101946.97;2081100;28;20966;-64
2023/09/17 01:20:42;;;;;;;7.63;4.50;;;;;;;21.62;100.00;101944.34;2073797;28;20621;-64
2023/09/17 01:21:56;;;;;;;7.37;5.00;;;;;;;21.73;100.00;101950.25;2073803;28;20181;-64
2023/09/17 01:23:02;;;;;;;4.63;3.80;;;;;;;21.72;100.00;101953.56;2073916;28;20174;-64
2023/09/17 01:24:23;;;;;;;5.90;4.30;;;;;;;21.74;100.00;101949.00;2073706;28;20429;-65
2023/09/17 01:25:52;;;;;;;5.33;4.37;;;;;;;21.75;100.00;101949.78;2079273;28;20177;-64
2023/09/17 01:27:03;;;;;;;5.13;4.20;;;;;;;21.74;100.00;101951.81;2081433;28;20258;-65
2023/09/17 01:28:05;;;;;;;5.50;4.07;;;;;;;21.03;100.00;101835.22;2080974;28;20447;-65
2023/09/17 01:29:05;;;;;;;6.47;4.17;;;;;;;21.76;100.00;101943.69;2081427;28;20455;-65
2023/09/17 01:30:14;;;;;;;6.00;4.13;;;;;;;21.79;100.00;101948.34;2080750;28;20980;-65
2023/09/17 01:31:15;;;;;;;9.50;4.77;;;;;;;21.78;100.00;101946.00;2081334;28;20176;-65
2023/09/17 01:32:17;;;;;;;4.53;3.73;;;;;;;21.22;100.00;101848.00;2081363;28;20431;-65
2023/09/17 01:33:17;;;;;;;5.07;4.20;;;;;;;21.80;100.00;101947.09;2081986;28;20189;-65
2023/09/17 01:34:18;;;;;;;5.70;4.43;;;;;;;21.81;100.00;101936.59;2081404;28;20534;-65
2023/09/17 01:35:18;;;;;;;6.33;4.50;;;;;;;21.82;100.00;101944.59;2081138;28;20185;-65
2023/09/17 01:36:27;;;;;;;8.43;4.70;;;;;;;21.81;100.00;101943.00;2080678;28;20621;-65
2023/09/17 01:37:31;;;;;;;4.77;3.87;;;;;;;21.75;100.00;101939.28;2081219;28;20219;-65
2023/09/17 01:38:39;;;;;;;6.40;4.50;;;;;;;21.70;100.00;101937.09;2081394;28;20443;-65
2023/09/17 01:39:45;;;;;;;5.67;4.40;;;;;;;21.62;100.00;101937.91;2080711;28;20453;-65
2023/09/17 01:40:48;;;;;;;5.33;4.33;;;;;;;21.62;100.00;101935.88;2081494;28;20196;-66
2023/09/17 01:41:49;;;;;;;6.20;4.63;;;;;;;21.64;100.00;101932.56;2080777;28;20967;-65
2023/09/17 01:42:51;;;;;;;6.10;4.40;;;;;;;21.62;100.00;101937.91;2081448;28;20173;-65
2023/09/17 01:43:51;;;;;;;5.60;4.23;;;;;;;21.57;100.00;101935.72;2081348;28;20420;-65
2023/09/17 01:44:55;;;;;;;6.97;4.67;;;;;;;21.58;100.00;101932.44;2081656;28;20416;-65
2023/09/17 01:45:56;;;;;;;5.30;4.30;;;;;;;21.56;100.00;101937.78;2081787;28;20742;-65
2023/09/17 01:47:00;;;;;;;5.93;4.90;;;;;;;21.50;100.00;101930.44;2080189;28;20874;-66
2023/09/17 01:48:01;;;;;;;6.13;4.83;;;;;;;21.46;100.00;101932.66;2080807;28;20630;-66
2023/09/17 01:49:03;;;;;;;8.63;5.17;;;;;;;21.46;100.00;101933.44;2081291;28;20199;-66
2023/09/17 01:50:05;;;;;;;7.30;4.63;;;;;;;21.46;100.00;101933.44;2080552;28;20815;-66
2023/09/17 01:51:07;;;;;;;8.67;4.80;;;;;;;21.48;100.00;101930.91;2080526;28;20439;-66
2023/09/17 01:52:08;;;;;;;6.20;4.87;;;;;;;21.52;100.00;101934.34;2080740;28;20221;-66
2023/09/17 01:53:11;;;;;;;6.73;5.33;;;;;;;21.50;100.00;101938.91;2080873;28;20952;-66
2023/09/17 01:54:13;;;;;;;5.07;4.27;;;;;;;21.49;100.00;101932.47;2078674;28;20277;-66
2023/09/17 01:55:13;;;;;;;5.97;4.67;;;;;;;21.46;100.00;101936.25;2072294;28;20634;-66
2023/09/17 01:56:14;;;;;;;6.97;5.30;;;;;;;21.46;100.00;101941.09;2081532;28;20193;-66
2023/09/17 01:57:15;;;;;;;7.00;4.90;;;;;;;21.32;100.00;101919.22;2080964;28;20266;-66
2023/09/17 01:58:17;;;;;;;6.03;4.37;;;;;;;21.31;100.00;101914.84;2081373;28;20193;-65
2023/09/17 01:59:17;;;;;;;6.60;4.60;;;;;;;21.38;100.00;101926.56;2081159;28;20204;-65
2023/09/17 02:00:18;;;;;;;7.43;4.97;;;;;;;21.38;100.00;101934.22;2080689;28;20455;-65
2023/09/17 02:01:19;;;;;;;11.03;5.63;;;;;;;21.41;100.00;101928.44;2081274;28;20662;-65
2023/09/17 02:02:19;;;;;;;7.80;5.43;;;;;;;21.44;100.00;101933.13;2081000;28;20181;-65
2023/09/17 02:03:20;;;;;;;6.13;5.07;;;;;;;20.85;100.00;101855.00;2081040;28;20199;-65
2023/09/17 02:04:20;;;;;;;5.63;4.90;;;;;;;21.42;100.00;101927.19;2081621;28;20177;-65
2023/09/17 02:05:24;;;;;;;6.53;4.53;;;;;;;21.39;100.00;101928.13;2081534;28;20232;-65
2023/09/17 02:06:24;;;;;;;5.77;4.73;;;;;;;21.39;100.00;101930.94;2081173;28;20207;-65
2023/09/17 02:07:25;;;;;;;6.63;4.83;;;;;;;21.43;100.00;101927.94;2080832;28;20232;-65
2023/09/17 02:08:25;;;;;;;11.63;5.97;;;;;;;21.46;100.00;101921.38;2081221;28;20193;-65
2023/09/17 02:09:26;;;;;;;6.13;5.13;;;;;;;21.47;100.00;101926.53;2080569;28;20287;-65
2023/09/17 02:10:26;;;;;;;7.03;5.07;;;;;;;21.49;100.00;101918.38;2080880;28;20193;-65
2023/09/17 02:11:27;;;;;;;8.27;5.43;;;;;;;21.48;100.00;101925.28;2081016;28;20177;-65
2023/09/17 02:12:28;;;;;;;8.23;5.17;;;;;;;21.36;100.00;101923.44;2080928;28;20239;-65
2023/09/17 02:13:29;;;;;;;7.73;5.77;;;;;;;21.35;100.00;101921.09;2085164;28;20184;-65
2023/09/17 02:14:29;;;;;;;8.80;5.30;;;;;;;21.32;100.00;101917.19;2081965;28;20553;-65
2023/09/17 02:15:30;;;;;;;8.17;5.37;;;;;;;21.29;100.00;101923.75;2081315;28;20647;-65
2023/09/17 02:16:31;;;;;;;6.83;5.23;;;;;;;21.33;100.00;101930.03;2081177;28;20213;-65
2023/09/17 02:17:32;;;;;;;6.90;5.47;;;;;;;21.31;100.00;101924.09;2080710;28;20189;-65
2023/09/17 02:18:32;;;;;;;8.03;6.00;;;;;;;21.26;100.00;101921.13;2080928;28;20197;-65
2023/09/17 02:19:32;;;;;;;6.93;5.10;;;;;;;21.24;100.00;101906.72;2080328;28;20261;-65
2023/09/17 02:20:37;;;;;;;7.33;5.23;;;;;;;21.28;100.00;101915.81;2080741;28;20647;-65
2023/09/17 02:21:38;;;;;;;6.93;5.47;;;;;;;21.28;100.00;101921.44;2081636;28;20558;-65
2023/09/17 02:22:39;;;;;;;8.70;5.87;;;;;;;21.27;100.00;101917.84;2080670;28;20452;-65
2023/09/17 02:23:39;;;;;;;7.03;5.47;;;;;;;21.23;100.00;101919.28;2081386;28;20618;-65
2023/09/17 02:24:40;;;;;;;6.80;5.40;;;;;;;21.28;100.00;101918.63;2080975;28;20540;-65
2023/09/17 02:25:40;;;;;;;6.70;4.77;;;;;;;21.33;100.00;101921.56;2081331;28;20315;-65
2023/09/17 02:26:41;;;;;;;5.73;4.83;;;;;;;21.36;100.00;101917.00;2081010;28;20247;-66
2023/09/17 02:27:41;;;;;;;7.40;5.60;;;;;;;21.35;100.00;101926.75;2080561;28;20204;-65
2023/09/17 02:28:41;;;;;;;9.57;5.60;;;;;;;21.36;100.00;101919.84;2080895;28;20173;-65
2023/09/17 02:29:43;;;;;;;8.37;5.83;;;;;;;21.42;100.00;101930.00;2080364;28;20276;-65
2023/09/17 02:30:44;;;;;;;7.80;5.77;;;;;;;21.46;100.00;101929.81;2081399;28;20208;-65
2023/09/17 02:31:44;;;;;;;7.70;5.87;;;;;;;21.45;100.00;101929.03;2081031;28;20479;-65
2023/09/17 02:32:45;;;;;;;8.63;5.33;;;;;;;21.44;100.00;101921.06;2081379;28;20331;-65
2023/09/17 02:33:45;;;;;;;6.33;4.87;;;;;;;21.45;100.00;101923.38;2080816;28;20724;-65
2023/09/17 02:34:45;;;;;;;9.23;5.60;;;;;;;21.32;100.00;101908.72;2081125;28;20220;-65
2023/09/17 02:35:46;;;;;;;6.97;5.43;;;;;;;21.40;100.00;101926.84;2080840;28;20259;-65
2023/09/17 02:36:46;;;;;;;7.83;5.93;;;;;;;21.43;100.00;101925.13;2080490;28;20176;-65
2023/09/17 02:37:47;;;;;;;6.70;5.57;;;;;;;21.39;100.00;101921.72;2080259;28;20277;-65
2023/09/17 02:38:47;;;;;;;9.23;6.00;;;;;;;21.36;100.00;101925.47;2081317;28;20188;-65
2023/09/17 02:39:47;;;;;;;6.73;5.70;;;;;;;21.32;100.00;101917.19;2080836;28;20228;-65
2023/09/17 02:40:48;;;;;;;8.17;5.93;;;;;;;21.30;100.00;101922.53;2080705;28;20276;-65
2023/09/17 02:41:48;;;;;;;7.67;6.07;;;;;;;21.31;100.00;101924.09;2080914;28;20204;-65
2023/09/17 02:42:49;;;;;;;10.53;6.23;;;;;;;21.38;100.00;101922.94;2080945;28;20619;-65
2023/09/17 02:43:50;;;;;;;6.67;5.13;;;;;;;21.40;100.00;101923.28;2080811;28;20274;-65
2023/09/17 02:44:50;;;;;;;9.37;6.10;;;;;;;21.41;100.00;101919.19;2080790;28;20184;-65
2023/09/17 02:45:53;;;;;;;8.67;6.20;;;;;;;21.37;100.00;101922.19;2080760;28;20204;-65
2023/09/17 02:46:55;;;;;;;8.97;6.30;;;;;;;21.19;100.00;101885.59;2081194;28;20181;-65
2023/09/17 02:47:56;;;;;;;7.30;5.43;;;;;;;21.47;100.00;101931.38;2080545;28;20450;-65
2023/09/17 02:48:56;;;;;;;7.87;5.67;;;;;;;21.46;100.00;101922.16;2080472;28;20221;-65
2023/09/17 02:49:57;;;;;;;8.13;5.93;;;;;;;21.54;100.00;101926.19;2079889;28;20193;-65
2023/09/17 02:50:58;;;;;;;7.73;6.03;;;;;;;21.51;100.00;101926.34;2080893;28;20705;-65
2023/09/17 02:51:58;;;;;;;7.80;5.60;;;;;;;21.56;100.00;101932.16;2080663;28;20229;-65
2023/09/17 02:52:58;;;;;;;9.87;5.90;;;;;;;21.56;100.00;101931.34;2080006;28;20584;-65
2023/09/17 02:53:59;;;;;;;8.77;5.97;;;;;;;21.57;100.00;101927.25;2079104;28;20678;-65
2023/09/17 02:54:59;;;;;;;7.53;5.83;;;;;;;21.59;100.00;101928.34;2072415;28;20683;-65
2023/09/17 02:56:01;;;;;;;7.00;5.30;;;;;;;21.61;100.00;101931.50;2081361;28;20181;-65
2023/09/17 02:57:02;;;;;;;9.73;6.23;;;;;;;21.58;100.00;101923.97;2080756;28;20189;-65
2023/09/17 02:58:03;;;;;;;9.77;6.13;;;;;;;21.54;100.00;101923.34;2080314;28;20256;-65
2023/09/17 02:59:05;;;;;;;7.00;5.33;;;;;;;21.57;100.00;101924.44;2080768;28;20400;-64
2023/09/17 03:00:08;;;;;;;7.20;5.90;;;;;;;21.49;100.00;101924.00;2080248;28;20200;-65
2023/09/17 03:01:18;;;;;;;9.23;5.73;;;;;;;21.45;100.00;101926.22;2081039;28;20677;-65
2023/09/17 03:02:19;;;;;;;8.30;5.93;;;;;;;21.46;100.00;101930.63;2080339;28;20200;-65
2023/09/17 03:03:20;;;;;;;9.00;6.47;;;;;;;21.20;100.00;101906.09;2080819;28;20629;-65
2023/09/17 03:04:20;;;;;;;8.20;5.97;;;;;;;21.42;100.00;101923.56;2079562;28;20176;-65
2023/09/17 03:05:21;;;;;;;9.10;6.07;;;;;;;21.41;100.00;101919.97;2079881;28;20223;-65
2023/09/17 03:06:21;;;;;;;8.57;5.77;;;;;;;21.44;100.00;101923.88;2081222;28;20165;-65
2023/09/17 03:07:22;;;;;;;9.80;6.30;;;;;;;21.45;100.00;101925.44;2080810;28;20205;-65
2023/09/17 03:08:22;;;;;;;7.20;5.70;;;;;;;21.49;100.00;101921.19;2079695;28;20188;-65
2023/09/17 03:09:24;;;;;;;7.17;5.60;;;;;;;21.53;100.00;101921.00;2080122;28;20276;-65
2023/09/17 03:10:26;;;;;;;9.83;6.60;;;;;;;21.53;100.00;101923.81;2075951;28;20213;-65
2023/09/17 03:11:29;;;;;;;8.77;6.97;;;;;;;21.51;100.00;101926.34;2080838;28;20200;-64
2023/09/17 03:12:30;;;;;;;8.40;6.30;;;;;;;21.47;100.00;101925.75;2080024;28;20173;-65
2023/09/17 03:13:31;;;;;;;7.67;5.67;;;;;;;21.46;100.00;101918.53;2080625;28;20171;-65
2023/09/17 03:14:31;;;;;;;9.13;6.27;;;;;;;21.48;100.00;101922.44;2080482;28;20185;-65
2023/09/17 03:15:31;;;;;;;7.40;6.10;;;;;;;21.51;100.00;101920.72;2081231;28;20256;-65
2023/09/17 03:16:33;;;;;;;8.27;6.13;;;;;;;21.51;100.00;101918.69;2080807;28;20189;-65
2023/09/17 03:17:37;;;;;;;9.00;6.13;;;;;;;21.21;100.00;101880.25;2080459;28;20196;-65
2023/09/17 03:18:38;;;;;;;8.37;5.90;;;;;;;21.14;100.00;101865.72;2080740;28;20279;-65
2023/09/17 03:19:38;;;;;;;7.37;6.10;;;;;;;21.50;100.00;101910.69;2080214;28;20247;-65
2023/09/17 03:20:39;;;;;;;8.17;6.30;;;;;;;21.49;100.00;101917.59;2080620;28;20638;-65
2023/09/17 03:21:40;;;;;;;8.23;6.17;;;;;;;21.43;100.00;101909.00;2080645;28;20200;-64
2023/09/17 03:22:41;;;;;;;8.87;6.30;;;;;;;21.52;100.00;101916.63;2079841;28;20256;-65
2023/09/17 03:23:41;;;;;;;9.73;5.87;;;;;;;21.54;100.00;101917.72;2080566;28;20948;-65
2023/09/17 03:24:42;;;;;;;7.70;5.80;;;;;;;21.56;100.00;101923.69;2080580;28;20250;-65
2023/09/17 03:25:42;;;;;;;9.00;6.60;;;;;;;21.59;100.00;101919.13;2080053;28;20196;-65
2023/09/17 03:26:43;;;;;;;9.70;6.63;;;;;;;21.61;100.00;101914.56;2080391;28;20201;-65
2023/09/17 03:27:43;;;;;;;8.97;6.03;;;;;;;21.54;100.00;101914.13;2080201;28;20196;-65
2023/09/17 03:28:43;;;;;;;7.73;5.90;;;;;;;21.56;100.00;101911.59;2080627;28;20220;-65
2023/09/17 03:29:44;;;;;;;9.57;5.73;;;;;;;21.55;100.00;101907.22;2079474;28;20181;-65
2023/09/17 03:30:45;;;;;;;10.57;6.47;;;;;;;21.54;100.00;101906.44;2078507;28;20298;-65
2023/09/17 03:31:48;;;;;;;8.67;6.00;;;;;;;21.56;100.00;101920.84;2079211;28;20511;-65
2023/09/17 03:32:48;;;;;;;8.07;6.70;;;;;;;21.62;100.00;101915.31;2071080;28;20697;-65
2023/09/17 03:33:48;;;;;;;8.63;6.17;;;;;;;21.62;100.00;101918.16;2077963;28;20819;-65
2023/09/17 03:34:49;;;;;;;10.17;5.90;;;;;;;21.57;100.00;101907.53;2080361;28;20720;-65
2023/09/17 03:35:50;;;;;;;7.97;6.43;;;;;;;21.65;100.00;101920.03;2078675;28;20219;-65
2023/09/17 03:36:50;;;;;;;8.37;6.30;;;;;;;21.52;100.00;101894.84;2078449;28;20204;-65
2023/09/17 03:37:51;;;;;;;8.50;6.10;;;;;;;21.68;100.00;101919.88;2078137;28;20197;-65
2023/09/17 03:38:51;;;;;;;8.87;6.63;;;;;;;21.62;100.00;101920.97;2078653;28;20184;-64
2023/09/17 03:40:12;;;;;;;7.70;6.10;;;;;;;21.58;100.00;101923.19;2077965;28;20187;-65
2023/09/17 03:41:12;;;;;;;9.93;7.00;;;;;;;21.57;100.00;101927.25;2078873;28;20161;-65
2023/09/17 03:42:12;;;;;;;8.50;6.23;;;;;;;21.48;100.00;101922.44;2078264;28;20454;-65
2023/09/17 03:43:13;;;;;;;8.23;6.67;;;;;;;21.47;100.00;101923.72;2079113;28;20757;-65
2023/09/17 03:44:14;;;;;;;8.23;6.13;;;;;;;21.42;100.00;101918.72;2078422;28;20259;-65
2023/09/17 03:45:15;;;;;;;8.93;6.70;;;;;;;21.44;100.00;101923.88;2078905;28;20203;-65
2023/09/17 03:46:15;;;;;;;9.20;6.20;;;;;;;21.41;100.00;101922.00;2077548;28;21089;-64
2023/09/17 03:47:16;;;;;;;9.77;6.60;;;;;;;21.45;100.00;101922.63;2072796;28;20271;-65
2023/09/17 03:48:17;;;;;;;8.67;6.63;;;;;;;21.48;100.00;101918.84;2073474;28;20207;-64
2023/09/17 03:49:23;;;;;;;9.97;6.83;;;;;;;21.47;100.00;101928.56;2078411;28;20173;-64
2023/09/17 03:50:23;;;;;;;7.53;6.20;;;;;;;21.50;100.00;101924.78;2077953;28;20919;-65
2023/09/17 03:51:24;;;;;;;8.63;6.47;;;;;;;21.49;100.00;101926.06;2078264;28;20470;-64
2023/09/17 03:52:26;;;;;;;8.17;6.33;;;;;;;21.54;100.00;101925.41;2078672;28;20252;-64
2023/09/17 03:53:29;;;;;;;7.73;5.93;;;;;;;21.58;100.00;101926.00;2078668;28;20239;-64
2023/09/17 03:54:30;;;;;;;7.83;6.30;;;;;;;21.63;100.00;101923.31;2078356;28;21004;-64
2023/09/17 03:55:33;;;;;;;9.90;6.27;;;;;;;21.57;100.00;101927.25;2078553;28;20510;-64
2023/09/17 03:56:34;;;;;;;9.47;5.63;;;;;;;21.56;100.00;101923.69;2078362;28;20200;-64
2023/09/17 03:57:36;;;;;;;8.00;6.37;;;;;;;21.67;100.00;101928.78;2078547;28;20550;-64
2023/09/17 03:58:37;;;;;;;10.70;6.57;;;;;;;21.69;100.00;101921.44;2078048;28;20661;-64
2023/09/17 03:59:38;;;;;;;10.80;6.53;;;;;;;21.74;100.00;101920.78;2078121;28;20219;-64
2023/09/17 04:00:38;;;;;;;8.67;6.03;;;;;;;21.66;100.00;101911.09;2078401;28;20725;-64
2023/09/17 04:01:39;;;;;;;8.03;6.27;;;;;;;21.59;100.00;101924.75;2078877;28;20188;-64
2023/09/17 04:02:41;;;;;;;9.10;6.40;;;;;;;21.58;100.00;101926.78;2078922;28;20177;-64
2023/09/17 04:03:42;;;;;;;8.17;6.20;;;;;;;21.50;100.00;101921.97;2078407;28;20188;-64
2023/09/17 04:04:42;;;;;;;8.87;6.30;;;;;;;21.40;100.00;101903.53;2078310;28;20739;-64
2023/09/17 04:05:42;;;;;;;8.80;6.80;;;;;;;21.48;100.00;101930.91;2078425;28;20197;-64
2023/09/17 04:06:44;;;;;;;9.87;7.23;;;;;;;21.47;100.00;101926.53;2078549;28;20482;-64
2023/09/17 04:07:46;;;;;;;8.90;6.13;;;;;;;21.48;100.00;101930.13;2078052;28;20200;-64
2023/09/17 04:08:46;;;;;;;9.17;6.50;;;;;;;21.53;100.00;101930.25;2078406;28;20187;-64
2023/09/17 04:09:47;;;;;;;9.43;6.90;;;;;;;21.49;100.00;101926.06;2078911;28;20420;-64
2023/09/17 04:10:49;;;;;;;10.03;6.40;;;;;;;21.51;100.00;101932.00;2078426;28;20205;-64
2023/09/17 04:11:49;;;;;;;8.17;6.40;;;;;;;21.49;100.00;101921.19;2078073;28;20185;-63
2023/09/17 04:12:50;;;;;;;9.57;6.23;;;;;;;21.49;100.00;101921.19;2078027;28;20192;-64
2023/09/17 04:13:50;;;;;;;8.70;6.17;;;;;;;21.47;100.00;101922.91;2077858;28;20184;-64
2023/09/17 04:14:51;;;;;;;8.23;6.40;;;;;;;21.50;100.00;101922.75;2073067;28;20268;-64
2023/09/17 04:15:52;;;;;;;8.17;6.30;;;;;;;21.52;100.00;101920.25;2073158;28;20226;-64
2023/09/17 04:16:54;;;;;;;10.13;6.67;;;;;;;21.56;100.00;101914.44;2078196;28;20282;-64
2023/09/17 04:17:54;;;;;;;8.77;6.67;;;;;;;21.45;100.00;101914.94;2077734;28;20187;-64
2023/09/17 04:18:55;;;;;;;9.00;5.87;;;;;;;21.51;100.00;101932.00;2077863;28;20621;-64
2023/09/17 04:19:56;;;;;;;9.73;6.67;;;;;;;21.51;100.00;101926.34;2077972;28;20176;-64
2023/09/17 04:20:56;;;;;;;10.03;6.37;;;;;;;21.49;100.00;101931.69;2070694;28;20197;-64
2023/09/17 04:21:57;;;;;;;8.30;6.87;;;;;;;21.55;100.00;101926.97;2076777;28;20197;-64
2023/09/17 04:22:57;;;;;;;8.43;6.43;;;;;;;20.96;100.00;101841.22;2078495;28;20549;-64
2023/09/17 04:23:58;;;;;;;9.53;7.00;;;;;;;21.33;100.00;101889.78;2078009;28;20824;-64
2023/09/17 04:24:58;;;;;;;9.40;6.60;;;;;;;21.55;100.00;101929.78;2078299;28;20294;-64
2023/09/17 04:25:59;;;;;;;8.97;6.67;;;;;;;21.56;100.00;101929.31;2077784;28;20184;-64
2023/09/17 04:26:59;;;;;;;11.37;7.03;;;;;;;21.55;100.00;101924.16;2077449;28;20180;-64
2023/09/17 04:27:59;;;;;;;9.67;6.93;;;;;;;21.61;100.00;101936.34;2078360;28;20184;-64
2023/09/17 04:29:00;;;;;;;9.63;6.30;;;;;;;21.65;100.00;101934.13;2077861;28;20227;-64
2023/09/17 04:30:00;;;;;;;8.10;6.17;;;;;;;21.61;100.00;101933.53;2077521;28;20254;-64
2023/09/17 04:31:01;;;;;;;7.67;6.13;;;;;;;21.57;100.00;101922.41;2077805;28;20211;-64
2023/09/17 04:32:01;;;;;;;7.73;5.83;;;;;;;21.68;100.00;101931.16;2078144;28;20201;-64
2023/09/17 04:33:02;;;;;;;8.87;6.33;;;;;;;21.67;100.00;101929.56;2077956;28;20208;-65
2023/09/17 04:34:02;;;;;;;10.67;6.23;;;;;;;21.69;100.00;101931.97;2077961;28;20177;-64
2023/09/17 04:35:07;;;;;;;8.10;5.80;;;;;;;21.73;100.00;101935.38;2077830;28;20173;-64
2023/09/17 04:36:07;;;;;;;8.63;6.40;;;;;;;21.68;100.00;101914.22;2078322;28;20177;-64
2023/09/17 04:37:10;;;;;;;10.13;6.73;;;;;;;21.74;100.00;101934.88;2077809;28;20503;-64
2023/09/17 04:38:10;;;;;;;8.30;6.47;;;;;;;21.75;100.00;101933.63;2077846;28;20794;-64
2023/09/17 04:39:13;;;;;;;9.60;6.90;;;;;;;21.62;100.00;101912.50;2078016;28;20443;-64
2023/09/17 04:40:14;;;;;;;7.93;6.30;;;;;;;21.55;100.00;101908.00;2077433;28;20228;-64
2023/09/17 04:41:15;;;;;;;10.03;6.30;;;;;;;21.80;100.00;101937.84;2077965;28;20650;-64
2023/09/17 04:42:17;;;;;;;9.13;6.43;;;;;;;21.81;100.00;101931.72;2077909;28;20687;-64